Brooten, Minnesota
Current Conditions -  °F | °C
As of 10:54 PM on Saturday 22 Nov 2014 (Local Time) from KGHW Reporting Station
Haze Haze  
Wind Chill: 26°   Ceiling: 200
Heat Index: 34°   Visibility: 1.2mi
Dew Point: 34°   Wind: 10mph
Humidity: 100%   Direction: 130°SE
Pressure: 29.41"   Gusts: NA
Location:  45.5°N, 95.12°W
Report Text: KGHW 230454Z AUTO 13009KT 1 1/4SM BR OVC002 01/01 A2941 RMK AO2
Loading
Personal Weather Stations






























Interactive Weather Map New forecast layout! Learn more

10-Day Weather Forecast

Advertisements
Track Severe Weather on mobile